sensor_id;sensor_type;location;lat;lon;timestamp;temperature;humidity
6538;DHT22;3302;52.508;13.454;2023-12-20T00:01:36;6.60;99.90
6538;DHT22;3302;52.508;13.454;2023-12-20T00:04:03;6.60;99.90
6538;DHT22;3302;52.508;13.454;2023-12-20T00:06:30;6.60;99.90
6538;DHT22;3302;52.508;13.454;2023-12-20T00:08:55;6.70;99.90
6538;DHT22;3302;52.508;13.454;2023-12-20T00:11:21;6.60;99.90
6538;DHT22;3302;52.508;13.454;2023-12-20T00:13:47;6.60;99.90
6538;DHT22;3302;52.508;13.454;2023-12-20T00:16:13;6.60;99.90
6538;DHT22;3302;52.508;13.454;2023-12-20T00:18:39;6.60;99.90
6538;DHT22;3302;52.508;13.454;2023-12-20T00:21:04;6.60;99.90
6538;DHT22;3302;52.508;13.454;2023-12-20T00:23:30;6.60;99.90
6538;DHT22;3302;52.508;13.454;2023-12-20T00:25:56;6.60;99.90
6538;DHT22;3302;52.508;13.454;2023-12-20T00:28:22;6.60;99.90
6538;DHT22;3302;52.508;13.454;2023-12-20T00:30:48;6.70;99.90
6538;DHT22;3302;52.508;13.454;2023-12-20T00:33:14;6.60;99.90
6538;DHT22;3302;52.508;13.454;2023-12-20T00:35:40;6.70;99.90
6538;DHT22;3302;52.508;13.454;2023-12-20T00:38:06;6.60;99.90
6538;DHT22;3302;52.508;13.454;2023-12-20T00:40:32;6.60;99.90
6538;DHT22;3302;52.508;13.454;2023-12-20T00:42:59;6.60;99.90
6538;DHT22;3302;52.508;13.454;2023-12-20T00:45:24;6.60;99.90
6538;DHT22;3302;52.508;13.454;2023-12-20T00:47:50;6.60;99.90
6538;DHT22;3302;52.508;13.454;2023-12-20T00:50:16;6.60;99.90
6538;DHT22;3302;52.508;13.454;2023-12-20T00:52:42;6.70;99.90
6538;DHT22;3302;52.508;13.454;2023-12-20T00:55:08;6.60;99.90
6538;DHT22;3302;52.508;13.454;2023-12-20T00:57:34;6.60;99.90
6538;DHT22;3302;52.508;13.454;2023-12-20T01:00:00;6.60;99.90
6538;DHT22;3302;52.508;13.454;2023-12-20T01:02:26;6.60;99.90
6538;DHT22;3302;52.508;13.454;2023-12-20T01:04:52;6.60;99.90
6538;DHT22;3302;52.508;13.454;2023-12-20T01:07:18;6.60;99.90
6538;DHT22;3302;52.508;13.454;2023-12-20T01:09:44;6.60;99.90
6538;DHT22;3302;52.508;13.454;2023-12-20T01:12:10;6.60;99.90
6538;DHT22;3302;52.508;13.454;2023-12-20T01:14:36;6.60;99.90
6538;DHT22;3302;52.508;13.454;2023-12-20T01:17:01;6.60;99.90
6538;DHT22;3302;52.508;13.454;2023-12-20T01:19:27;6.60;99.90
6538;DHT22;3302;52.508;13.454;2023-12-20T01:21:55;6.60;99.90
6538;DHT22;3302;52.508;13.454;2023-12-20T01:24:21;6.60;99.90
6538;DHT22;3302;52.508;13.454;2023-12-20T01:26:47;6.60;99.90
6538;DHT22;3302;52.508;13.454;2023-12-20T01:29:13;6.60;99.90
6538;DHT22;3302;52.508;13.454;2023-12-20T01:31:40;6.50;99.90
6538;DHT22;3302;52.508;13.454;2023-12-20T01:34:06;6.60;99.90
6538;DHT22;3302;52.508;13.454;2023-12-20T01:36:32;6.60;99.90
6538;DHT22;3302;52.508;13.454;2023-12-20T01:38:58;6.60;99.90
6538;DHT22;3302;52.508;13.454;2023-12-20T01:41:23;6.60;99.90
6538;DHT22;3302;52.508;13.454;2023-12-20T01:43:49;6.60;99.90
6538;DHT22;3302;52.508;13.454;2023-12-20T01:46:15;6.60;99.90
6538;DHT22;3302;52.508;13.454;2023-12-20T01:48:42;6.60;99.90
6538;DHT22;3302;52.508;13.454;2023-12-20T01:51:09;6.60;99.90
6538;DHT22;3302;52.508;13.454;2023-12-20T01:53:36;6.60;99.90
6538;DHT22;3302;52.508;13.454;2023-12-20T01:56:02;6.60;99.90
6538;DHT22;3302;52.508;13.454;2023-12-20T01:58:28;6.60;99.90
6538;DHT22;3302;52.508;13.454;2023-12-20T02:00:54;6.70;99.90
6538;DHT22;3302;52.508;13.454;2023-12-20T02:03:21;6.70;99.90
6538;DHT22;3302;52.508;13.454;2023-12-20T02:05:47;6.60;99.90
6538;DHT22;3302;52.508;13.454;2023-12-20T02:08:13;6.70;99.90
6538;DHT22;3302;52.508;13.454;2023-12-20T02:10:39;6.60;99.90
6538;DHT22;3302;52.508;13.454;2023-12-20T02:13:06;6.70;99.90
6538;DHT22;3302;52.508;13.454;2023-12-20T02:15:32;6.70;99.90
6538;DHT22;3302;52.508;13.454;2023-12-20T02:17:58;6.60;99.90
6538;DHT22;3302;52.508;13.454;2023-12-20T02:20:24;6.60;99.90
6538;DHT22;3302;52.508;13.454;2023-12-20T02:22:50;6.60;99.90
6538;DHT22;3302;52.508;13.454;2023-12-20T02:25:16;6.50;99.90
6538;DHT22;3302;52.508;13.454;2023-12-20T02:27:42;6.50;99.90
6538;DHT22;3302;52.508;13.454;2023-12-20T02:30:08;6.50;99.90
6538;DHT22;3302;52.508;13.454;2023-12-20T02:32:34;6.50;99.90
6538;DHT22;3302;52.508;13.454;2023-12-20T02:35:00;6.50;99.90
6538;DHT22;3302;52.508;13.454;2023-12-20T02:37:25;6.50;99.90
6538;DHT22;3302;52.508;13.454;2023-12-20T02:39:51;6.60;99.90
6538;DHT22;3302;52.508;13.454;2023-12-20T02:42:17;6.60;99.90
6538;DHT22;3302;52.508;13.454;2023-12-20T02:44:43;6.60;99.90
6538;DHT22;3302;52.508;13.454;2023-12-20T02:47:09;6.60;99.90
6538;DHT22;3302;52.508;13.454;2023-12-20T02:49:35;6.60;99.90
6538;DHT22;3302;52.508;13.454;2023-12-20T02:52:00;6.60;99.90
6538;DHT22;3302;52.508;13.454;2023-12-20T02:54:26;6.60;99.90
6538;DHT22;3302;52.508;13.454;2023-12-20T02:56:52;6.70;99.90
6538;DHT22;3302;52.508;13.454;2023-12-20T02:59:18;6.70;99.90
6538;DHT22;3302;52.508;13.454;2023-12-20T03:01:45;6.70;99.90
6538;DHT22;3302;52.508;13.454;2023-12-20T03:04:12;6.70;99.90
6538;DHT22;3302;52.508;13.454;2023-12-20T03:06:38;6.70;99.90
6538;DHT22;3302;52.508;13.454;2023-12-20T03:09:04;6.60;99.90
6538;DHT22;3302;52.508;13.454;2023-12-20T03:11:30;6.60;99.90
6538;DHT22;3302;52.508;13.454;2023-12-20T03:13:56;6.70;99.90
6538;DHT22;3302;52.508;13.454;2023-12-20T03:16:22;6.70;99.90
6538;DHT22;3302;52.508;13.454;2023-12-20T03:18:48;6.60;99.90
6538;DHT22;3302;52.508;13.454;2023-12-20T03:21:14;6.70;99.90
6538;DHT22;3302;52.508;13.454;2023-12-20T03:23:41;6.70;99.90
6538;DHT22;3302;52.508;13.454;2023-12-20T03:26:08;6.70;99.90
6538;DHT22;3302;52.508;13.454;2023-12-20T03:28:34;6.60;99.90
6538;DHT22;3302;52.508;13.454;2023-12-20T03:31:01;6.70;99.90
6538;DHT22;3302;52.508;13.454;2023-12-20T03:33:28;6.60;99.90
6538;DHT22;3302;52.508;13.454;2023-12-20T03:35:55;6.60;99.90
6538;DHT22;3302;52.508;13.454;2023-12-20T03:38:22;6.60;99.90
6538;DHT22;3302;52.508;13.454;2023-12-20T03:40:50;6.60;99.90
6538;DHT22;3302;52.508;13.454;2023-12-20T03:43:16;6.60;99.90
6538;DHT22;3302;52.508;13.454;2023-12-20T03:45:43;6.60;99.90
6538;DHT22;3302;52.508;13.454;2023-12-20T03:48:09;6.60;99.90
6538;DHT22;3302;52.508;13.454;2023-12-20T03:50:35;6.50;99.90
6538;DHT22;3302;52.508;13.454;2023-12-20T03:53:02;6.50;99.90
6538;DHT22;3302;52.508;13.454;2023-12-20T03:55:29;6.50;99.90
6538;DHT22;3302;52.508;13.454;2023-12-20T03:57:55;6.50;99.90
6538;DHT22;3302;52.508;13.454;2023-12-20T04:00:21;6.50;99.90
6538;DHT22;3302;52.508;13.454;2023-12-20T04:02:46;6.50;99.90
6538;DHT22;3302;52.508;13.454;2023-12-20T04:05:12;6.50;99.90
6538;DHT22;3302;52.508;13.454;2023-12-20T04:07:38;6.50;99.90
6538;DHT22;3302;52.508;13.454;2023-12-20T04:10:05;6.50;99.90
6538;DHT22;3302;52.508;13.454;2023-12-20T04:12:32;6.50;99.90
6538;DHT22;3302;52.508;13.454;2023-12-20T04:14:58;6.50;99.90
6538;DHT22;3302;52.508;13.454;2023-12-20T04:17:23;6.40;99.90
6538;DHT22;3302;52.508;13.454;2023-12-20T04:19:50;6.40;99.90
6538;DHT22;3302;52.508;13.454;2023-12-20T04:22:17;6.40;99.90
6538;DHT22;3302;52.508;13.454;2023-12-20T04:24:43;6.40;99.90
6538;DHT22;3302;52.508;13.454;2023-12-20T04:27:09;6.40;99.90
6538;DHT22;3302;52.508;13.454;2023-12-20T04:29:35;6.30;99.90
6538;DHT22;3302;52.508;13.454;2023-12-20T04:32:01;6.40;99.90
6538;DHT22;3302;52.508;13.454;2023-12-20T04:34:26;6.30;99.90
6538;DHT22;3302;52.508;13.454;2023-12-20T04:36:53;6.30;99.90
6538;DHT22;3302;52.508;13.454;2023-12-20T04:39:19;6.30;99.90
6538;DHT22;3302;52.508;13.454;2023-12-20T04:41:44;6.30;99.90
6538;DHT22;3302;52.508;13.454;2023-12-20T04:44:10;6.30;99.90
6538;DHT22;3302;52.508;13.454;2023-12-20T04:46:36;6.20;99.90
6538;DHT22;3302;52.508;13.454;2023-12-20T04:49:02;6.20;99.90
6538;DHT22;3302;52.508;13.454;2023-12-20T04:51:27;6.10;99.90
6538;DHT22;3302;52.508;13.454;2023-12-20T04:53:53;6.20;99.90
6538;DHT22;3302;52.508;13.454;2023-12-20T04:56:19;6.10;99.90
6538;DHT22;3302;52.508;13.454;2023-12-20T04:58:45;6.10;99.90
6538;DHT22;3302;52.508;13.454;2023-12-20T05:01:11;6.10;99.90
6538;DHT22;3302;52.508;13.454;2023-12-20T05:03:37;6.10;99.90
6538;DHT22;3302;52.508;13.454;2023-12-20T05:06:03;6.10;99.90
6538;DHT22;3302;52.508;13.454;2023-12-20T05:08:29;6.10;99.90
6538;DHT22;3302;52.508;13.454;2023-12-20T05:10:55;6.10;99.90
6538;DHT22;3302;52.508;13.454;2023-12-20T05:13:21;6.10;99.90
6538;DHT22;3302;52.508;13.454;2023-12-20T05:15:47;6.10;99.90
6538;DHT22;3302;52.508;13.454;2023-12-20T05:18:13;6.10;99.90
6538;DHT22;3302;52.508;13.454;2023-12-20T05:20:39;6.10;99.90
6538;DHT22;3302;52.508;13.454;2023-12-20T05:23:05;6.10;99.90
6538;DHT22;3302;52.508;13.454;2023-12-20T05:25:32;6.10;99.90
6538;DHT22;3302;52.508;13.454;2023-12-20T05:27:57;6.00;99.90
6538;DHT22;3302;52.508;13.454;2023-12-20T05:30:23;6.00;99.90
6538;DHT22;3302;52.508;13.454;2023-12-20T05:32:49;5.90;99.90
6538;DHT22;3302;52.508;13.454;2023-12-20T05:35:15;5.90;99.90
6538;DHT22;3302;52.508;13.454;2023-12-20T05:37:41;5.90;99.90
6538;DHT22;3302;52.508;13.454;2023-12-20T05:40:08;5.80;99.90
6538;DHT22;3302;52.508;13.454;2023-12-20T05:42:37;5.80;99.90
6538;DHT22;3302;52.508;13.454;2023-12-20T05:45:04;5.80;99.90
6538;DHT22;3302;52.508;13.454;2023-12-20T05:47:31;5.70;99.90
6538;DHT22;3302;52.508;13.454;2023-12-20T05:49:57;5.70;99.90
6538;DHT22;3302;52.508;13.454;2023-12-20T05:52:23;5.60;99.90
6538;DHT22;3302;52.508;13.454;2023-12-20T05:54:49;5.60;99.90
6538;DHT22;3302;52.508;13.454;2023-12-20T05:57:14;5.60;99.90
6538;DHT22;3302;52.508;13.454;2023-12-20T05:59:40;5.60;99.90
6538;DHT22;3302;52.508;13.454;2023-12-20T06:02:06;5.50;99.90
6538;DHT22;3302;52.508;13.454;2023-12-20T06:04:32;5.50;99.90
6538;DHT22;3302;52.508;13.454;2023-12-20T06:06:58;5.50;99.90
6538;DHT22;3302;52.508;13.454;2023-12-20T06:09:28;5.50;99.90
6538;DHT22;3302;52.508;13.454;2023-12-20T06:11:53;5.40;99.90
6538;DHT22;3302;52.508;13.454;2023-12-20T06:14:19;5.40;99.90
6538;DHT22;3302;52.508;13.454;2023-12-20T06:16:45;5.40;99.90
6538;DHT22;3302;52.508;13.454;2023-12-20T06:19:11;5.40;99.90
6538;DHT22;3302;52.508;13.454;2023-12-20T06:21:37;5.40;99.90
6538;DHT22;3302;52.508;13.454;2023-12-20T06:24:03;5.40;99.90
6538;DHT22;3302;52.508;13.454;2023-12-20T06:26:29;5.30;99.90
6538;DHT22;3302;52.508;13.454;2023-12-20T06:28:55;5.40;99.90
6538;DHT22;3302;52.508;13.454;2023-12-20T06:31:21;5.40;99.90
6538;DHT22;3302;52.508;13.454;2023-12-20T06:33:47;5.40;99.90
6538;DHT22;3302;52.508;13.454;2023-12-20T06:36:15;5.40;99.90
6538;DHT22;3302;52.508;13.454;2023-12-20T06:38:42;5.40;99.90
6538;DHT22;3302;52.508;13.454;2023-12-20T06:41:08;5.30;99.90
6538;DHT22;3302;52.508;13.454;2023-12-20T06:43:34;5.30;99.90
6538;DHT22;3302;52.508;13.454;2023-12-20T06:46:03;5.40;99.90
6538;DHT22;3302;52.508;13.454;2023-12-20T06:48:28;5.50;99.90
6538;DHT22;3302;52.508;13.454;2023-12-20T06:50:54;5.50;99.90
6538;DHT22;3302;52.508;13.454;2023-12-20T06:53:20;5.40;99.90
6538;DHT22;3302;52.508;13.454;2023-12-20T06:55:46;5.40;99.90
6538;DHT22;3302;52.508;13.454;2023-12-20T06:58:12;5.40;99.90
6538;DHT22;3302;52.508;13.454;2023-12-20T07:00:37;5.30;99.90
6538;DHT22;3302;52.508;13.454;2023-12-20T07:03:03;5.30;99.90
6538;DHT22;3302;52.508;13.454;2023-12-20T07:05:31;5.30;99.90
6538;DHT22;3302;52.508;13.454;2023-12-20T07:07:56;5.40;99.90
6538;DHT22;3302;52.508;13.454;2023-12-20T07:10:22;5.30;99.90
6538;DHT22;3302;52.508;13.454;2023-12-20T07:12:48;5.30;99.90
6538;DHT22;3302;52.508;13.454;2023-12-20T07:15:14;5.30;99.90
6538;DHT22;3302;52.508;13.454;2023-12-20T07:17:40;5.30;99.90
6538;DHT22;3302;52.508;13.454;2023-12-20T07:20:06;5.30;99.90
6538;DHT22;3302;52.508;13.454;2023-12-20T07:22:35;5.30;99.90
6538;DHT22;3302;52.508;13.454;2023-12-20T07:25:01;5.40;99.90
6538;DHT22;3302;52.508;13.454;2023-12-20T07:27:27;5.30;99.90
6538;DHT22;3302;52.508;13.454;2023-12-20T07:29:53;5.40;99.90
6538;DHT22;3302;52.508;13.454;2023-12-20T07:32:19;5.40;99.90
6538;DHT22;3302;52.508;13.454;2023-12-20T07:34:45;5.40;99.90
6538;DHT22;3302;52.508;13.454;2023-12-20T07:37:10;5.40;99.90
6538;DHT22;3302;52.508;13.454;2023-12-20T07:39:40;5.50;99.90
6538;DHT22;3302;52.508;13.454;2023-12-20T07:42:07;5.40;99.90
6538;DHT22;3302;52.508;13.454;2023-12-20T07:44:33;5.40;99.90
6538;DHT22;3302;52.508;13.454;2023-12-20T07:46:59;5.40;99.90
6538;DHT22;3302;52.508;13.454;2023-12-20T07:49:26;5.40;99.90
6538;DHT22;3302;52.508;13.454;2023-12-20T07:51:52;5.50;99.90
6538;DHT22;3302;52.508;13.454;2023-12-20T07:54:18;5.50;99.90
6538;DHT22;3302;52.508;13.454;2023-12-20T07:56:44;5.50;99.90
6538;DHT22;3302;52.508;13.454;2023-12-20T07:59:09;5.50;99.90
6538;DHT22;3302;52.508;13.454;2023-12-20T08:01:35;5.50;99.90
6538;DHT22;3302;52.508;13.454;2023-12-20T08:04:01;5.50;99.90
6538;DHT22;3302;52.508;13.454;2023-12-20T08:06:28;5.50;99.90
6538;DHT22;3302;52.508;13.454;2023-12-20T08:08:54;5.50;99.90
6538;DHT22;3302;52.508;13.454;2023-12-20T08:11:20;5.60;99.90
6538;DHT22;3302;52.508;13.454;2023-12-20T08:13:46;5.50;99.90
6538;DHT22;3302;52.508;13.454;2023-12-20T08:16:12;5.60;99.90
6538;DHT22;3302;52.508;13.454;2023-12-20T08:18:39;5.50;99.90
6538;DHT22;3302;52.508;13.454;2023-12-20T08:21:06;5.60;99.90
6538;DHT22;3302;52.508;13.454;2023-12-20T08:23:34;5.60;99.90
6538;DHT22;3302;52.508;13.454;2023-12-20T08:26:05;5.60;99.90
6538;DHT22;3302;52.508;13.454;2023-12-20T08:28:32;5.50;99.90
6538;DHT22;3302;52.508;13.454;2023-12-20T08:30:58;5.50;99.90
6538;DHT22;3302;52.508;13.454;2023-12-20T08:33:24;5.60;99.90
6538;DHT22;3302;52.508;13.454;2023-12-20T08:35:50;5.60;99.90
6538;DHT22;3302;52.508;13.454;2023-12-20T08:38:16;5.60;99.90
6538;DHT22;3302;52.508;13.454;2023-12-20T08:40:43;5.60;99.90
6538;DHT22;3302;52.508;13.454;2023-12-20T08:43:09;5.60;99.90
6538;DHT22;3302;52.508;13.454;2023-12-20T08:45:35;5.60;99.90
6538;DHT22;3302;52.508;13.454;2023-12-20T08:48:01;5.70;99.90
6538;DHT22;3302;52.508;13.454;2023-12-20T08:50:29;5.70;99.90
6538;DHT22;3302;52.508;13.454;2023-12-20T08:52:54;5.60;99.90
6538;DHT22;3302;52.508;13.454;2023-12-20T08:55:20;5.70;99.90
6538;DHT22;3302;52.508;13.454;2023-12-20T08:57:46;5.70;99.90
6538;DHT22;3302;52.508;13.454;2023-12-20T09:00:14;5.70;99.90
6538;DHT22;3302;52.508;13.454;2023-12-20T09:02:40;5.70;99.90
6538;DHT22;3302;52.508;13.454;2023-12-20T09:05:07;5.70;99.90
6538;DHT22;3302;52.508;13.454;2023-12-20T09:07:32;5.70;99.90
6538;DHT22;3302;52.508;13.454;2023-12-20T09:09:58;5.70;99.90
6538;DHT22;3302;52.508;13.454;2023-12-20T09:12:24;5.70;99.90
6538;DHT22;3302;52.508;13.454;2023-12-20T09:14:51;5.80;99.90
6538;DHT22;3302;52.508;13.454;2023-12-20T09:17:18;5.90;99.90
6538;DHT22;3302;52.508;13.454;2023-12-20T09:19:44;5.90;99.90
6538;DHT22;3302;52.508;13.454;2023-12-20T09:22:11;5.90;99.90
6538;DHT22;3302;52.508;13.454;2023-12-20T09:24:37;5.90;99.90
6538;DHT22;3302;52.508;13.454;2023-12-20T09:27:04;5.90;99.90
6538;DHT22;3302;52.508;13.454;2023-12-20T09:29:31;5.90;99.90
6538;DHT22;3302;52.508;13.454;2023-12-20T09:31:57;6.00;99.90
6538;DHT22;3302;52.508;13.454;2023-12-20T09:34:23;6.00;99.90
6538;DHT22;3302;52.508;13.454;2023-12-20T09:36:49;6.10;99.90
6538;DHT22;3302;52.508;13.454;2023-12-20T09:39:19;6.00;99.90
6538;DHT22;3302;52.508;13.454;2023-12-20T09:42:02;6.00;99.90
6538;DHT22;3302;52.508;13.454;2023-12-20T09:44:28;6.00;99.90
6538;DHT22;3302;52.508;13.454;2023-12-20T09:46:55;6.10;99.90
6538;DHT22;3302;52.508;13.454;2023-12-20T09:49:21;6.00;99.90
6538;DHT22;3302;52.508;13.454;2023-12-20T09:51:48;6.00;99.90
6538;DHT22;3302;52.508;13.454;2023-12-20T09:54:17;6.00;99.90
6538;DHT22;3302;52.508;13.454;2023-12-20T09:56:44;6.00;99.90
6538;DHT22;3302;52.508;13.454;2023-12-20T09:59:10;6.00;99.90
6538;DHT22;3302;52.508;13.454;2023-12-20T10:01:39;6.10;99.90
6538;DHT22;3302;52.508;13.454;2023-12-20T10:04:06;6.10;99.90
6538;DHT22;3302;52.508;13.454;2023-12-20T10:06:39;6.10;99.90
6538;DHT22;3302;52.508;13.454;2023-12-20T10:09:05;6.10;99.90
6538;DHT22;3302;52.508;13.454;2023-12-20T10:11:31;6.10;99.90
6538;DHT22;3302;52.508;13.454;2023-12-20T10:14:00;6.20;99.90
6538;DHT22;3302;52.508;13.454;2023-12-20T10:16:27;6.20;99.90
6538;DHT22;3302;52.508;13.454;2023-12-20T10:18:54;6.20;99.90
6538;DHT22;3302;52.508;13.454;2023-12-20T10:21:21;6.20;99.90
6538;DHT22;3302;52.508;13.454;2023-12-20T10:23:51;6.20;99.90
6538;DHT22;3302;52.508;13.454;2023-12-20T10:26:24;6.30;99.90
6538;DHT22;3302;52.508;13.454;2023-12-20T10:29:01;6.20;99.90
6538;DHT22;3302;52.508;13.454;2023-12-20T10:31:33;6.30;99.90
6538;DHT22;3302;52.508;13.454;2023-12-20T10:34:00;6.20;99.90
6538;DHT22;3302;52.508;13.454;2023-12-20T10:36:29;6.30;99.90
6538;DHT22;3302;52.508;13.454;2023-12-20T10:38:56;6.30;99.90
6538;DHT22;3302;52.508;13.454;2023-12-20T10:41:27;6.30;99.90
6538;DHT22;3302;52.508;13.454;2023-12-20T10:44:04;6.30;99.90
6538;DHT22;3302;52.508;13.454;2023-12-20T10:46:34;6.30;99.90
6538;DHT22;3302;52.508;13.454;2023-12-20T10:49:02;6.30;99.90
6538;DHT22;3302;52.508;13.454;2023-12-20T10:51:28;6.40;99.90
6538;DHT22;3302;52.508;13.454;2023-12-20T10:53:57;6.40;99.90
6538;DHT22;3302;52.508;13.454;2023-12-20T10:56:24;6.40;99.90
6538;DHT22;3302;52.508;13.454;2023-12-20T10:58:52;6.40;99.90
6538;DHT22;3302;52.508;13.454;2023-12-20T11:01:19;6.40;99.90
6538;DHT22;3302;52.508;13.454;2023-12-20T11:03:53;6.40;99.90
6538;DHT22;3302;52.508;13.454;2023-12-20T11:06:35;6.40;99.90
6538;DHT22;3302;52.508;13.454;2023-12-20T11:09:17;6.40;99.90
6538;DHT22;3302;52.508;13.454;2023-12-20T11:14:24;6.50;99.90
6538;DHT22;3302;52.508;13.454;2023-12-20T11:17:04;6.50;99.90
6538;DHT22;3302;52.508;13.454;2023-12-20T11:19:30;6.50;99.90
6538;DHT22;3302;52.508;13.454;2023-12-20T11:21:57;6.40;99.90
6538;DHT22;3302;52.508;13.454;2023-12-20T11:24:23;6.40;99.90
6538;DHT22;3302;52.508;13.454;2023-12-20T11:26:49;6.40;99.90
6538;DHT22;3302;52.508;13.454;2023-12-20T11:29:36;6.30;99.90
6538;DHT22;3302;52.508;13.454;2023-12-20T11:32:03;6.30;99.90
6538;DHT22;3302;52.508;13.454;2023-12-20T11:34:32;6.30;99.90
6538;DHT22;3302;52.508;13.454;2023-12-20T11:37:02;6.30;99.90
6538;DHT22;3302;52.508;13.454;2023-12-20T11:39:30;6.30;99.90
6538;DHT22;3302;52.508;13.454;2023-12-20T11:41:57;6.30;99.90
6538;DHT22;3302;52.508;13.454;2023-12-20T11:44:25;6.30;99.90
6538;DHT22;3302;52.508;13.454;2023-12-20T11:46:51;6.20;99.90
6538;DHT22;3302;52.508;13.454;2023-12-20T11:49:17;6.30;99.90
6538;DHT22;3302;52.508;13.454;2023-12-20T11:51:43;6.30;99.90
6538;DHT22;3302;52.508;13.454;2023-12-20T11:54:09;6.30;99.90
6538;DHT22;3302;52.508;13.454;2023-12-20T11:56:36;6.30;99.90
6538;DHT22;3302;52.508;13.454;2023-12-20T11:59:03;6.30;99.90
6538;DHT22;3302;52.508;13.454;2023-12-20T12:01:28;6.30;99.90
6538;DHT22;3302;52.508;13.454;2023-12-20T12:04:06;6.30;99.90
6538;DHT22;3302;52.508;13.454;2023-12-20T12:06:33;6.30;99.90
6538;DHT22;3302;52.508;13.454;2023-12-20T12:08:59;6.30;99.90
6538;DHT22;3302;52.508;13.454;2023-12-20T12:11:25;6.40;99.90
6538;DHT22;3302;52.508;13.454;2023-12-20T12:13:51;6.40;99.90
6538;DHT22;3302;52.508;13.454;2023-12-20T12:16:17;6.40;99.90
6538;DHT22;3302;52.508;13.454;2023-12-20T12:18:44;6.30;99.90
6538;DHT22;3302;52.508;13.454;2023-12-20T12:21:18;6.40;99.90
6538;DHT22;3302;52.508;13.454;2023-12-20T12:23:44;6.40;99.90
6538;DHT22;3302;52.508;13.454;2023-12-20T12:26:10;6.40;99.90
6538;DHT22;3302;52.508;13.454;2023-12-20T12:28:35;6.40;99.90
6538;DHT22;3302;52.508;13.454;2023-12-20T12:31:01;6.40;99.90
6538;DHT22;3302;52.508;13.454;2023-12-20T12:33:28;6.40;99.90
6538;DHT22;3302;52.508;13.454;2023-12-20T12:35:54;6.40;99.90
6538;DHT22;3302;52.508;13.454;2023-12-20T12:38:21;6.40;99.90
6538;DHT22;3302;52.508;13.454;2023-12-20T12:40:47;6.40;99.90
6538;DHT22;3302;52.508;13.454;2023-12-20T12:43:13;6.30;99.90
6538;DHT22;3302;52.508;13.454;2023-12-20T12:45:39;6.30;99.90
6538;DHT22;3302;52.508;13.454;2023-12-20T12:48:05;6.20;99.90
6538;DHT22;3302;52.508;13.454;2023-12-20T12:50:31;6.20;99.90
6538;DHT22;3302;52.508;13.454;2023-12-20T12:52:57;6.10;99.90
6538;DHT22;3302;52.508;13.454;2023-12-20T12:55:23;6.10;99.90
6538;DHT22;3302;52.508;13.454;2023-12-20T12:57:49;6.20;99.90
6538;DHT22;3302;52.508;13.454;2023-12-20T13:00:14;6.10;99.90
6538;DHT22;3302;52.508;13.454;2023-12-20T13:02:40;6.10;99.90
6538;DHT22;3302;52.508;13.454;2023-12-20T13:05:09;6.10;99.90
6538;DHT22;3302;52.508;13.454;2023-12-20T13:07:36;6.10;99.90
6538;DHT22;3302;52.508;13.454;2023-12-20T13:10:03;6.10;99.90
6538;DHT22;3302;52.508;13.454;2023-12-20T13:12:29;6.10;99.90
6538;DHT22;3302;52.508;13.454;2023-12-20T13:14:55;6.10;99.90
6538;DHT22;3302;52.508;13.454;2023-12-20T13:17:21;6.00;99.90
6538;DHT22;3302;52.508;13.454;2023-12-20T13:19:47;6.00;99.90
6538;DHT22;3302;52.508;13.454;2023-12-20T13:22:13;6.00;99.90
6538;DHT22;3302;52.508;13.454;2023-12-20T13:24:38;6.00;99.90
6538;DHT22;3302;52.508;13.454;2023-12-20T13:27:04;5.90;99.90
6538;DHT22;3302;52.508;13.454;2023-12-20T13:29:30;5.60;99.90
6538;DHT22;3302;52.508;13.454;2023-12-20T13:31:56;5.10;99.90
6538;DHT22;3302;52.508;13.454;2023-12-20T13:34:23;4.90;99.90
6538;DHT22;3302;52.508;13.454;2023-12-20T13:36:49;4.90;99.90
6538;DHT22;3302;52.508;13.454;2023-12-20T13:39:16;4.90;99.90
6538;DHT22;3302;52.508;13.454;2023-12-20T13:41:42;4.90;99.90
6538;DHT22;3302;52.508;13.454;2023-12-20T13:44:08;4.80;99.90
6538;DHT22;3302;52.508;13.454;2023-12-20T13:46:34;4.80;99.90
6538;DHT22;3302;52.508;13.454;2023-12-20T13:49:00;4.80;99.90
6538;DHT22;3302;52.508;13.454;2023-12-20T13:51:25;4.80;99.90
6538;DHT22;3302;52.508;13.454;2023-12-20T13:53:52;4.70;99.90
6538;DHT22;3302;52.508;13.454;2023-12-20T13:56:17;4.70;99.90
6538;DHT22;3302;52.508;13.454;2023-12-20T13:58:45;4.80;99.90
6538;DHT22;3302;52.508;13.454;2023-12-20T14:01:12;4.80;99.90
6538;DHT22;3302;52.508;13.454;2023-12-20T14:03:38;4.80;99.90
6538;DHT22;3302;52.508;13.454;2023-12-20T14:06:04;4.90;99.90
6538;DHT22;3302;52.508;13.454;2023-12-20T14:08:30;4.90;99.90
6538;DHT22;3302;52.508;13.454;2023-12-20T14:10:56;5.00;99.90
6538;DHT22;3302;52.508;13.454;2023-12-20T14:13:22;5.00;99.90
6538;DHT22;3302;52.508;13.454;2023-12-20T14:15:47;5.00;99.90
6538;DHT22;3302;52.508;13.454;2023-12-20T14:18:15;5.00;99.90
6538;DHT22;3302;52.508;13.454;2023-12-20T14:20:41;5.00;99.90
6538;DHT22;3302;52.508;13.454;2023-12-20T14:23:08;5.10;99.90
6538;DHT22;3302;52.508;13.454;2023-12-20T14:25:41;5.20;99.90
6538;DHT22;3302;52.508;13.454;2023-12-20T14:28:07;5.10;99.90
6538;DHT22;3302;52.508;13.454;2023-12-20T14:30:33;5.20;99.90
6538;DHT22;3302;52.508;13.454;2023-12-20T14:33:00;5.20;99.90
6538;DHT22;3302;52.508;13.454;2023-12-20T14:35:26;5.20;99.90
6538;DHT22;3302;52.508;13.454;2023-12-20T14:37:52;5.10;99.90
6538;DHT22;3302;52.508;13.454;2023-12-20T14:40:19;5.10;99.90
6538;DHT22;3302;52.508;13.454;2023-12-20T14:42:46;5.10;99.90
6538;DHT22;3302;52.508;13.454;2023-12-20T14:45:12;5.10;99.90
6538;DHT22;3302;52.508;13.454;2023-12-20T14:47:41;5.20;99.90
6538;DHT22;3302;52.508;13.454;2023-12-20T14:50:07;5.20;99.90
6538;DHT22;3302;52.508;13.454;2023-12-20T14:52:34;5.20;99.90
6538;DHT22;3302;52.508;13.454;2023-12-20T14:55:00;5.20;99.90
6538;DHT22;3302;52.508;13.454;2023-12-20T14:57:28;5.20;99.90
6538;DHT22;3302;52.508;13.454;2023-12-20T14:59:56;5.30;99.90
6538;DHT22;3302;52.508;13.454;2023-12-20T15:02:22;5.20;99.90
6538;DHT22;3302;52.508;13.454;2023-12-20T15:04:47;5.20;99.90
6538;DHT22;3302;52.508;13.454;2023-12-20T15:07:15;5.20;99.90
6538;DHT22;3302;52.508;13.454;2023-12-20T15:09:41;5.20;99.90
6538;DHT22;3302;52.508;13.454;2023-12-20T15:12:11;5.20;99.90
6538;DHT22;3302;52.508;13.454;2023-12-20T15:14:38;5.30;99.90
6538;DHT22;3302;52.508;13.454;2023-12-20T15:17:04;5.30;99.90
6538;DHT22;3302;52.508;13.454;2023-12-20T15:19:31;5.30;99.90
6538;DHT22;3302;52.508;13.454;2023-12-20T15:21:56;5.30;99.90
6538;DHT22;3302;52.508;13.454;2023-12-20T15:24:24;5.20;99.90
6538;DHT22;3302;52.508;13.454;2023-12-20T15:26:54;5.20;99.90
6538;DHT22;3302;52.508;13.454;2023-12-20T15:29:21;5.30;99.90
6538;DHT22;3302;52.508;13.454;2023-12-20T15:31:47;5.30;99.90
6538;DHT22;3302;52.508;13.454;2023-12-20T15:34:14;5.30;99.90
6538;DHT22;3302;52.508;13.454;2023-12-20T15:36:40;5.20;99.90
6538;DHT22;3302;52.508;13.454;2023-12-20T15:39:07;5.20;99.90
6538;DHT22;3302;52.508;13.454;2023-12-20T15:41:36;5.20;99.90
6538;DHT22;3302;52.508;13.454;2023-12-20T15:44:02;5.20;99.90
6538;DHT22;3302;52.508;13.454;2023-12-20T15:46:27;5.10;99.90
6538;DHT22;3302;52.508;13.454;2023-12-20T15:48:53;5.10;99.90
6538;DHT22;3302;52.508;13.454;2023-12-20T15:51:21;5.10;99.90
6538;DHT22;3302;52.508;13.454;2023-12-20T15:53:47;5.10;99.90
6538;DHT22;3302;52.508;13.454;2023-12-20T15:56:13;5.10;99.90
6538;DHT22;3302;52.508;13.454;2023-12-20T15:58:39;5.00;99.90
6538;DHT22;3302;52.508;13.454;2023-12-20T16:01:04;5.00;99.90